Terminal Aerodrome Forecast
Issued by NWS Sioux Falls, SD

Home | Current Version | Previous Version | Text Only | Print | Product List | Glossary Off
Versions: 1 2 3 4 5 6 7 8 9 10 11 12 13 14

000
FTUS43 KFSD 250520
TAFFSD
TAF
KFSD 250520Z 2506/2606 22005KT P6SM BKN100
     FM250900 26007KT P6SM FEW250
     FM251400 26009KT P6SM SCT035
     FM251600 28014G25KT P6SM BKN025
     FM251900 30018G30KT P6SM OVC035
     FM260100 31010KT P6SM FEW250=

USA.gov is the U.S. government's official web portal to all federal, state and local government web resources and services.